KEBS/EBS METAR and TAF weather

Enter ICAO airport designator
Station Type Date Time Source
KEBS METAR 2018/07/21 03:55 UTC NOAA

KEBS 210355Z AUTO 30007KT 10SM CLR 20/18 A2991 RMK AO2


Station Type Date Time Source
KEBS Decoded METAR 2018/07/21 03:55 UTC NOAA

Webster City, IA, United States (KEBS) 42-26N 093-52W
Jul 20, 2018 - 11:55 PM EDT / 2018.07.21 0355 UTC
Wind: from the WNW (300 degrees) at 8 MPH (7 KT):0
Visibility: 10 mile(s):0
Sky conditions: clear
Temperature: 68 F (20 C)
Dew Point: 64 F (18 C)
Relative Humidity: 88%
Pressure (altimeter): 29.91 in. Hg (1012 hPa)
ob: KEBS 210355Z AUTO 30007KT 10SM CLR 20/18 A2991 RMK AO2
cycle: 4

Station Type Date Time Source
KEBS TAF UTC NOAA

Error!


Example: see airport list